createdAt,value
2022-08-26T00:01:59.335Z,9.07
2022-08-26T00:04:27.560Z,9.88
2022-08-26T00:06:56.111Z,8.35
2022-08-26T00:09:50.019Z,8.73
2022-08-26T00:14:44.753Z,9.07
2022-08-26T00:17:11.648Z,7.95
2022-08-26T00:19:40.792Z,10.80
2022-08-26T00:22:07.730Z,8.15
2022-08-26T00:24:34.829Z,9.38
2022-08-26T00:27:02.001Z,9.75
2022-08-26T00:29:54.830Z,10.13
2022-08-26T00:32:23.627Z,8.75
2022-08-26T00:34:50.561Z,8.38
2022-08-26T00:37:18.676Z,9.52
2022-08-26T00:39:46.872Z,8.77
2022-08-26T00:42:13.994Z,8.30
2022-08-26T00:44:41.245Z,9.02
2022-08-26T00:47:21.697Z,8.82
2022-08-26T00:49:51.557Z,8.52
2022-08-26T00:52:21.659Z,7.93
2022-08-26T00:54:59.462Z,8.45
2022-08-26T00:57:26.785Z,8.43
2022-08-26T01:00:01.012Z,8.45
2022-08-26T01:02:28.877Z,8.05
2022-08-26T01:04:59.421Z,9.50
2022-08-26T01:07:30.161Z,10.40
2022-08-26T01:10:07.371Z,14.23
2022-08-26T01:12:40.309Z,14.90
2022-08-26T01:15:15.200Z,15.73
2022-08-26T01:17:43.829Z,18.77
2022-08-26T01:20:22.909Z,19.10
2022-08-26T01:23:01.465Z,16.42
2022-08-26T01:25:33.224Z,15.63
2022-08-26T01:28:05.898Z,16.20
2022-08-26T01:30:34.080Z,13.90
2022-08-26T01:33:04.932Z,15.10
2022-08-26T01:35:32.052Z,16.52
2022-08-26T01:38:02.322Z,14.23
2022-08-26T01:40:37.165Z,13.98
2022-08-26T01:43:07.383Z,13.88
2022-08-26T01:45:37.513Z,12.68
2022-08-26T01:48:11.568Z,11.90
2022-08-26T01:50:39.638Z,12.80
2022-08-26T01:53:10.822Z,11.95
2022-08-26T01:55:43.042Z,11.30
2022-08-26T01:58:23.828Z,13.02
2022-08-26T02:00:51.389Z,12.73
2022-08-26T02:03:21.648Z,13.35
2022-08-26T02:05:56.360Z,13.23
2022-08-26T02:08:37.049Z,12.77
2022-08-26T02:11:04.101Z,13.75
2022-08-26T02:13:33.571Z,13.55
2022-08-26T02:16:03.799Z,12.60
2022-08-26T02:18:38.954Z,14.50
2022-08-26T02:21:07.395Z,13.73
2022-08-26T02:23:35.798Z,14.10
2022-08-26T02:26:19.326Z,13.40
2022-08-26T02:28:57.270Z,14.23
2022-08-26T02:31:25.284Z,12.77
2022-08-26T02:33:52.227Z,11.38
2022-08-26T02:36:28.576Z,11.80
2022-08-26T02:38:55.908Z,12.80
2022-08-26T02:41:23.565Z,12.27
2022-08-26T02:43:51.636Z,11.70
2022-08-26T02:46:21.498Z,13.65
2022-08-26T02:48:56.232Z,14.10
2022-08-26T02:51:23.407Z,14.25
2022-08-26T02:53:51.861Z,13.73
2022-08-26T02:56:19.127Z,12.43
2022-08-26T02:59:06.160Z,13.13
2022-08-26T03:01:35.982Z,13.30
2022-08-26T03:04:05.376Z,12.13
2022-08-26T03:06:32.852Z,13.50
2022-08-26T03:09:00.084Z,14.05
2022-08-26T03:11:32.298Z,12.32
2022-08-26T03:14:01.829Z,13.38
2022-08-26T03:16:37.492Z,13.73
2022-08-26T03:19:09.911Z,11.95
2022-08-26T03:21:38.203Z,13.55
2022-08-26T03:24:05.917Z,14.50
2022-08-26T03:26:33.009Z,12.00
2022-08-26T03:32:49.403Z,11.93
2022-08-26T03:35:17.068Z,11.20
2022-08-26T03:38:27.525Z,11.23
2022-08-26T03:40:55.604Z,10.55
2022-08-26T03:43:26.716Z,11.57
2022-08-26T03:45:53.894Z,11.75
2022-08-26T03:48:27.054Z,12.18
2022-08-26T03:50:53.962Z,11.00
2022-08-26T03:53:21.421Z,11.13
2022-08-26T03:55:48.647Z,11.73
2022-08-26T03:58:20.633Z,11.55
2022-08-26T04:00:48.031Z,11.70
2022-08-26T04:03:38.531Z,11.20
2022-08-26T04:06:05.865Z,10.80
2022-08-26T04:09:01.064Z,10.23
2022-08-26T04:11:34.551Z,9.20
2022-08-26T04:14:05.388Z,10.27
2022-08-26T04:16:34.229Z,10.00
2022-08-26T04:19:06.583Z,11.32
2022-08-26T04:21:34.584Z,12.13
2022-08-26T04:24:03.586Z,12.75
2022-08-26T04:26:39.397Z,12.73
2022-08-26T04:29:34.777Z,13.20
2022-08-26T04:32:03.149Z,10.88
2022-08-26T04:34:30.091Z,9.82
2022-08-26T04:36:58.276Z,12.13
2022-08-26T04:39:28.241Z,11.18
2022-08-26T04:41:55.548Z,11.48
2022-08-26T04:44:27.419Z,10.98
2022-08-26T04:46:55.755Z,10.88
2022-08-26T04:49:28.809Z,11.10
2022-08-26T04:52:03.732Z,11.60
2022-08-26T04:54:31.973Z,10.68
2022-08-26T04:56:59.522Z,2.20
2022-08-26T04:59:27.662Z,9.73
2022-08-26T05:01:59.800Z,9.40
2022-08-26T05:04:26.871Z,9.48
2022-08-26T05:06:59.259Z,10.25
2022-08-26T05:09:58.618Z,9.98
2022-08-26T05:12:25.755Z,9.57
2022-08-26T05:14:53.516Z,11.35
2022-08-26T05:17:20.617Z,11.18
2022-08-26T05:19:50.556Z,11.35
2022-08-26T05:22:18.371Z,12.35
2022-08-26T05:24:46.453Z,14.93
2022-08-26T05:27:14.899Z,15.05
2022-08-26T05:30:48.450Z,15.27
2022-08-26T05:33:16.635Z,16.33
2022-08-26T05:35:46.035Z,15.88
2022-08-26T05:38:35.243Z,18.77
2022-08-26T05:41:02.511Z,18.63
2022-08-26T05:43:30.421Z,20.42
2022-08-26T05:46:05.997Z,21.65
2022-08-26T05:49:14.494Z,24.90
2022-08-26T05:51:45.199Z,28.13
2022-08-26T05:54:13.619Z,28.15
2022-08-26T05:56:41.261Z,26.60
2022-08-26T05:59:14.690Z,28.85
2022-08-26T06:01:43.610Z,26.58
2022-08-26T06:04:12.037Z,30.60
2022-08-26T06:06:41.749Z,25.63
2022-08-26T06:09:38.942Z,24.02
2022-08-26T06:12:06.065Z,26.60
2022-08-26T06:14:33.025Z,25.77
2022-08-26T06:17:00.835Z,24.63
2022-08-26T06:19:32.768Z,24.20
2022-08-26T06:22:22.449Z,24.13
2022-08-26T06:25:09.174Z,24.08
2022-08-26T06:27:36.921Z,24.83
2022-08-26T06:30:45.606Z,24.38
2022-08-26T06:33:13.308Z,23.00
2022-08-26T06:35:42.090Z,23.23
2022-08-26T06:38:11.253Z,23.55
2022-08-26T06:40:52.995Z,23.30
2022-08-26T06:43:23.826Z,23.77
2022-08-26T06:45:59.919Z,22.73
2022-08-26T06:48:30.179Z,24.00
2022-08-26T06:51:14.603Z,23.92
2022-08-26T06:53:46.171Z,23.75
2022-08-26T06:56:15.802Z,24.27
2022-08-26T06:59:15.532Z,25.02
2022-08-26T07:01:46.600Z,23.45
2022-08-26T07:04:20.171Z,25.13
2022-08-26T07:06:52.303Z,23.60
2022-08-26T07:09:24.792Z,26.10
2022-08-26T07:11:53.264Z,21.65
2022-08-26T07:14:21.706Z,24.10
2022-08-26T07:16:50.400Z,23.25
2022-08-26T07:19:30.592Z,23.45
2022-08-26T07:22:02.083Z,24.75
2022-08-26T07:24:31.186Z,24.50
2022-08-26T07:27:01.601Z,23.38
2022-08-26T07:29:33.224Z,24.15
2022-08-26T07:32:00.367Z,23.77
2022-08-26T07:34:27.572Z,22.08
2022-08-26T07:36:55.492Z,23.30
2022-08-26T07:39:31.493Z,22.20
2022-08-26T07:42:07.881Z,20.27
2022-08-26T07:44:37.583Z,20.75
2022-08-26T07:47:10.148Z,19.10
2022-08-26T07:50:48.993Z,19.15
2022-08-26T07:53:18.193Z,16.60
2022-08-26T07:55:47.147Z,18.00
2022-08-26T07:58:14.623Z,16.05
2022-08-26T08:00:43.005Z,16.58
2022-08-26T08:03:10.837Z,16.17
2022-08-26T08:05:38.316Z,13.95
2022-08-26T08:08:21.860Z,13.32
2022-08-26T08:10:56.075Z,13.48
2022-08-26T08:13:23.698Z,13.60
2022-08-26T08:15:51.047Z,13.23
2022-08-26T08:18:20.513Z,10.18
2022-08-26T08:21:04.701Z,10.93
2022-08-26T08:23:32.871Z,10.75
2022-08-26T08:26:06.192Z,9.30
2022-08-26T08:28:38.118Z,9.60
2022-08-26T08:31:06.076Z,10.15
2022-08-26T08:33:35.042Z,9.68
2022-08-26T08:36:02.224Z,9.25
2022-08-26T08:38:32.104Z,9.35
2022-08-26T08:40:59.007Z,9.70
2022-08-26T08:43:40.249Z,10.25
2022-08-26T08:46:14.051Z,9.77
2022-08-26T08:48:48.208Z,9.98
2022-08-26T08:51:49.937Z,8.85
2022-08-26T08:54:17.059Z,8.23
2022-08-26T08:56:57.583Z,6.68
2022-08-26T08:59:35.501Z,6.90
2022-08-26T09:02:22.389Z,5.55
2022-08-26T09:05:02.233Z,5.70
2022-08-26T09:07:47.257Z,5.75
2022-08-26T09:10:20.398Z,5.65
2022-08-26T09:12:48.849Z,5.13
2022-08-26T09:15:31.847Z,5.97
2022-08-26T09:18:11.935Z,5.32
2022-08-26T09:20:59.441Z,5.40
2022-08-26T09:23:27.188Z,5.30
2022-08-26T09:26:00.433Z,5.38
2022-08-26T09:28:31.597Z,5.80
2022-08-26T09:31:13.039Z,5.20
2022-08-26T09:33:41.600Z,4.97
2022-08-26T09:36:35.385Z,5.30
2022-08-26T09:39:27.471Z,5.50
2022-08-26T09:42:12.934Z,5.53
2022-08-26T09:45:00.535Z,5.45
2022-08-26T09:47:39.263Z,5.43
2022-08-26T09:50:31.107Z,8.55
2022-08-26T09:53:14.497Z,4.65
2022-08-26T09:55:47.672Z,5.10
2022-08-26T09:58:36.544Z,4.93
2022-08-26T10:01:14.948Z,4.38
2022-08-26T10:03:43.197Z,5.63
2022-08-26T10:06:21.304Z,5.45
2022-08-26T10:08:51.995Z,4.78
2022-08-26T10:11:38.391Z,4.22
2022-08-26T10:14:39.961Z,4.40
2022-08-26T10:17:38.194Z,4.53
2022-08-26T10:20:25.816Z,6.30
2022-08-26T10:23:12.571Z,6.38
2022-08-26T10:26:01.953Z,4.60
2022-08-26T10:28:38.827Z,4.25
2022-08-26T10:31:20.090Z,6.60
2022-08-26T10:33:52.526Z,5.40
2022-08-26T10:37:05.139Z,4.28
2022-08-26T10:39:46.002Z,4.07
2022-08-26T10:42:35.209Z,4.20
2022-08-26T10:45:11.938Z,4.32
2022-08-26T10:48:06.396Z,4.47
2022-08-26T10:50:37.531Z,5.25
2022-08-26T10:53:25.302Z,4.18
2022-08-26T10:56:28.469Z,3.55
2022-08-26T10:59:12.790Z,3.47
2022-08-26T11:01:42.955Z,3.50
2022-08-26T11:04:28.996Z,3.75
2022-08-26T11:07:33.752Z,3.20
2022-08-26T11:10:06.750Z,4.60
2022-08-26T11:12:37.291Z,3.78
2022-08-26T11:15:13.687Z,2.55
2022-08-26T11:18:03.614Z,4.07
2022-08-26T11:20:47.165Z,4.10
2022-08-26T11:23:23.000Z,4.75
2022-08-26T11:25:57.179Z,3.28
2022-08-26T11:28:45.307Z,2.58
2022-08-26T11:31:38.263Z,2.78
2022-08-26T11:34:08.848Z,4.65
2022-08-26T11:36:56.272Z,2.53
2022-08-26T11:40:02.723Z,2.55
2022-08-26T11:42:42.626Z,2.83
2022-08-26T11:45:31.181Z,2.63
2022-08-26T11:47:58.891Z,3.78
2022-08-26T11:50:28.340Z,2.85
2022-08-26T11:53:01.857Z,2.78
2022-08-26T11:55:31.447Z,3.20
2022-08-26T11:58:01.972Z,3.95
2022-08-26T12:00:39.770Z,2.88
2022-08-26T12:03:19.449Z,3.80
2022-08-26T12:05:49.268Z,3.10
2022-08-26T12:08:27.943Z,3.50
2022-08-26T12:11:09.418Z,2.03
2022-08-26T12:13:39.138Z,2.28
2022-08-26T12:16:06.771Z,3.50
2022-08-26T12:18:37.667Z,2.50
2022-08-26T12:21:22.109Z,2.97
2022-08-26T12:23:56.625Z,3.45
2022-08-26T12:26:23.524Z,4.15
2022-08-26T12:28:58.443Z,2.75
2022-08-26T12:31:35.415Z,2.42
2022-08-26T12:34:06.259Z,2.38
2022-08-26T12:36:48.169Z,3.83
2022-08-26T12:39:33.349Z,4.05
2022-08-26T12:42:02.744Z,3.45
2022-08-26T12:44:53.686Z,2.47
2022-08-26T12:47:44.329Z,2.58
2022-08-26T12:50:19.555Z,2.60
2022-08-26T12:53:02.780Z,3.42
2022-08-26T12:55:35.971Z,2.72
2022-08-26T12:58:28.413Z,1.83
2022-08-26T13:00:57.297Z,4.18
2022-08-26T13:03:54.221Z,1.92
2022-08-26T13:06:25.752Z,2.53
2022-08-26T13:08:59.300Z,1.40
2022-08-26T13:11:35.708Z,2.88
2022-08-26T13:14:07.049Z,1.40
2022-08-26T13:16:36.328Z,3.92
2022-08-26T13:19:10.290Z,1.30
2022-08-26T13:21:49.870Z,1.80
2022-08-26T13:24:23.119Z,2.22
2022-08-26T13:26:51.195Z,2.55
2022-08-26T13:29:19.415Z,1.88
2022-08-26T13:31:46.941Z,3.33
2022-08-26T13:34:18.121Z,2.03
2022-08-26T13:36:46.777Z,1.70
2022-08-26T13:39:15.044Z,2.15
2022-08-26T13:41:43.277Z,2.25
2022-08-26T13:44:11.281Z,3.50
2022-08-26T13:46:38.654Z,1.67
2022-08-26T13:49:07.343Z,3.17
2022-08-26T13:51:34.285Z,1.30
2022-08-26T13:54:01.267Z,3.85
2022-08-26T13:56:29.865Z,2.13
2022-08-26T13:58:58.311Z,1.30
2022-08-26T14:01:25.775Z,1.77
2022-08-26T14:03:52.885Z,3.00
2022-08-26T14:06:20.077Z,2.95
2022-08-26T14:09:07.130Z,1.85
2022-08-26T14:11:45.026Z,2.80
2022-08-26T14:14:21.497Z,2.88
2022-08-26T14:16:58.861Z,1.98
2022-08-26T14:19:31.922Z,1.77
2022-08-26T14:22:00.792Z,4.68
2022-08-26T14:24:28.994Z,2.75
2022-08-26T14:26:56.102Z,2.90
2022-08-26T14:29:23.046Z,3.25
2022-08-26T14:31:50.022Z,2.38
2022-08-26T14:34:17.323Z,2.60
2022-08-26T14:36:44.329Z,1.75
2022-08-26T14:39:13.528Z,2.90
2022-08-26T14:41:55.844Z,3.05
2022-08-26T14:44:29.806Z,2.40
2022-08-26T14:46:57.263Z,2.60
2022-08-26T14:49:25.221Z,1.77
2022-08-26T14:51:52.205Z,2.75
2022-08-26T14:54:21.195Z,2.15
2022-08-26T14:56:53.869Z,2.92
2022-08-26T14:59:26.919Z,2.05
2022-08-26T15:01:54.685Z,3.78
2022-08-26T15:04:23.042Z,3.05
2022-08-26T15:06:50.962Z,1.67
2022-08-26T15:09:18.138Z,4.30
2022-08-26T15:11:47.671Z,1.88
2022-08-26T15:14:19.907Z,2.10
2022-08-26T15:16:51.855Z,2.63
2022-08-26T15:19:19.840Z,2.22
2022-08-26T15:21:47.589Z,6.00
2022-08-26T15:24:17.295Z,2.70
2022-08-26T15:26:44.546Z,2.47
2022-08-26T15:29:12.019Z,3.10
2022-08-26T15:31:38.988Z,3.90
2022-08-26T15:34:15.960Z,3.35
2022-08-26T15:36:45.805Z,3.75
2022-08-26T15:39:16.501Z,1.33
2022-08-26T15:41:43.929Z,2.22
2022-08-26T15:44:11.907Z,3.22
2022-08-26T15:46:39.381Z,3.80
2022-08-26T15:49:08.419Z,3.42
2022-08-26T15:51:45.255Z,1.85
2022-08-26T15:54:13.645Z,3.38
2022-08-26T15:56:40.676Z,3.00
2022-08-26T15:59:08.237Z,2.78
2022-08-26T16:01:36.100Z,1.88
2022-08-26T16:04:03.823Z,2.92
2022-08-26T16:06:33.835Z,1.38
2022-08-26T16:09:01.878Z,4.18
2022-08-26T16:11:29.269Z,2.30
2022-08-26T16:13:56.184Z,2.65
2022-08-26T16:16:23.557Z,2.63
2022-08-26T16:19:47.060Z,2.75
2022-08-26T16:22:14.129Z,3.67
2022-08-26T16:24:40.996Z,4.90
2022-08-26T16:27:08.409Z,2.97
2022-08-26T16:29:39.247Z,2.70
2022-08-26T16:32:08.840Z,5.15
2022-08-26T16:34:36.166Z,2.60
2022-08-26T16:37:03.150Z,2.08
2022-08-26T16:39:30.409Z,2.67
2022-08-26T16:41:57.551Z,3.63
2022-08-26T16:44:24.663Z,2.58
2022-08-26T16:46:58.723Z,1.92
2022-08-26T16:50:04.689Z,2.30
2022-08-26T16:52:31.600Z,2.78
2022-08-26T16:54:58.544Z,6.00
2022-08-26T16:57:25.771Z,3.17
2022-08-26T16:59:53.949Z,2.35
2022-08-26T17:02:20.937Z,1.60
2022-08-26T17:04:50.215Z,3.00
2022-08-26T17:07:17.507Z,2.10
2022-08-26T17:09:45.647Z,2.20
2022-08-26T17:12:12.701Z,2.63
2022-08-26T17:14:39.579Z,2.60
2022-08-26T17:17:06.500Z,2.75
2022-08-26T17:19:41.073Z,2.33
2022-08-26T17:22:14.945Z,1.85
2022-08-26T17:24:42.999Z,2.15
2022-08-26T17:27:10.093Z,1.67
2022-08-26T17:29:56.089Z,1.90
2022-08-26T17:32:23.031Z,1.92
2022-08-26T17:34:50.040Z,2.67
2022-08-26T17:37:17.411Z,3.42
2022-08-26T17:39:45.523Z,1.90
2022-08-26T17:42:13.310Z,2.25
2022-08-26T17:44:40.261Z,2.33
2022-08-26T17:47:07.280Z,2.05
2022-08-26T17:50:12.843Z,3.20
2022-08-26T17:52:41.061Z,2.00
2022-08-26T17:55:09.728Z,3.17
2022-08-26T17:57:40.461Z,2.75
2022-08-26T18:00:12.996Z,3.50
2022-08-26T18:02:40.539Z,2.90
2022-08-26T18:05:09.316Z,5.10
2022-08-26T18:07:43.847Z,3.42
2022-08-26T18:10:13.803Z,2.65
2022-08-26T18:12:41.767Z,3.00
2022-08-26T18:15:10.575Z,4.43
2022-08-26T18:17:39.285Z,3.90
2022-08-26T18:20:09.337Z,2.60
2022-08-26T18:22:36.260Z,4.70
2022-08-26T18:25:05.093Z,2.63
2022-08-26T18:27:32.472Z,3.65
2022-08-26T18:30:01.909Z,3.45
2022-08-26T18:32:28.896Z,3.63
2022-08-26T18:34:55.790Z,4.07
2022-08-26T18:37:22.915Z,5.03
2022-08-26T18:39:51.794Z,3.38
2022-08-26T18:42:19.035Z,3.03
2022-08-26T18:44:46.064Z,2.90
2022-08-26T18:47:13.249Z,3.55
2022-08-26T18:49:41.534Z,4.75
2022-08-26T18:52:09.273Z,3.20
2022-08-26T18:54:36.901Z,4.80
2022-08-26T18:57:04.140Z,2.83
2022-08-26T18:59:34.476Z,4.30
2022-08-26T19:02:01.562Z,3.10
2022-08-26T19:04:28.649Z,3.20
2022-08-26T19:06:56.015Z,3.30
2022-08-26T19:09:43.849Z,2.85
2022-08-26T19:12:12.745Z,4.25
2022-08-26T19:14:39.778Z,3.42
2022-08-26T19:17:06.766Z,4.50
2022-08-26T19:19:35.186Z,3.53
2022-08-26T19:22:02.261Z,3.25
2022-08-26T19:24:29.200Z,4.88
2022-08-26T19:27:00.338Z,4.57
2022-08-26T19:29:33.661Z,5.35
2022-08-26T19:32:02.006Z,5.55
2022-08-26T19:34:29.531Z,4.45
2022-08-26T19:36:58.344Z,4.10
2022-08-26T19:39:45.505Z,6.18
2022-08-26T19:42:12.975Z,4.07
2022-08-26T19:44:58.444Z,4.60
2022-08-26T19:47:25.478Z,5.50
2022-08-26T19:49:55.831Z,4.80
2022-08-26T19:52:24.247Z,4.78
2022-08-26T19:54:57.683Z,4.72
2022-08-26T19:57:24.860Z,6.05
2022-08-26T19:59:54.032Z,3.70
2022-08-26T20:02:21.151Z,4.10
2022-08-26T20:04:48.250Z,4.22
2022-08-26T20:07:18.947Z,5.72
2022-08-26T20:10:06.204Z,4.32
2022-08-26T20:12:35.913Z,3.75
2022-08-26T20:15:06.651Z,6.65
2022-08-26T20:17:33.721Z,4.90
2022-08-26T20:20:32.804Z,4.40
2022-08-26T20:23:01.699Z,5.45
2022-08-26T20:25:28.677Z,5.05
2022-08-26T20:27:55.853Z,4.95
2022-08-26T20:30:22.851Z,5.20
2022-08-26T20:32:49.810Z,4.88
2022-08-26T20:35:16.912Z,5.22
2022-08-26T20:37:47.544Z,5.13
2022-08-26T20:40:15.099Z,5.47
2022-08-26T20:42:42.472Z,5.63
2022-08-26T20:45:10.651Z,4.57
2022-08-26T20:47:37.596Z,5.30
2022-08-26T20:50:08.068Z,5.00
2022-08-26T20:52:35.481Z,5.15
2022-08-26T20:55:02.484Z,5.10
2022-08-26T20:57:29.556Z,5.22
2022-08-26T21:00:35.539Z,5.10
2022-08-26T21:03:02.508Z,5.25
2022-08-26T21:05:29.472Z,5.63
2022-08-26T21:07:58.514Z,5.32
2022-08-26T21:10:25.563Z,4.90
2022-08-26T21:12:53.469Z,5.50
2022-08-26T21:15:20.433Z,5.22
2022-08-26T21:17:47.332Z,5.22
2022-08-26T21:20:14.688Z,5.13
2022-08-26T21:22:41.856Z,5.60
2022-08-26T21:25:09.652Z,5.97
2022-08-26T21:27:37.911Z,5.10
2022-08-26T21:30:07.535Z,5.78
2022-08-26T21:32:34.486Z,5.82
2022-08-26T21:35:01.382Z,4.90
2022-08-26T21:37:28.944Z,4.70
2022-08-26T21:39:59.401Z,5.60
2022-08-26T21:42:26.696Z,5.20
2022-08-26T21:44:54.269Z,4.90
2022-08-26T21:47:22.274Z,4.53
2022-08-26T21:50:09.376Z,4.35
2022-08-26T21:52:37.702Z,5.03
2022-08-26T21:55:08.841Z,5.43
2022-08-26T21:57:36.517Z,5.55
2022-08-26T22:00:08.771Z,9.30
2022-08-26T22:02:36.820Z,5.50
2022-08-26T22:05:04.143Z,5.47
2022-08-26T22:07:31.039Z,5.15
2022-08-26T22:09:59.062Z,5.55
2022-08-26T22:12:25.994Z,5.40
2022-08-26T22:14:53.008Z,5.13
2022-08-26T22:17:20.016Z,6.03
2022-08-26T22:19:48.035Z,5.22
2022-08-26T22:22:15.259Z,4.82
2022-08-26T22:24:43.307Z,5.68
2022-08-26T22:27:11.999Z,5.90
2022-08-26T22:29:41.402Z,5.90
2022-08-26T22:32:08.501Z,5.80
2022-08-26T22:34:35.451Z,5.90
2022-08-26T22:37:03.207Z,5.47
2022-08-26T22:39:31.419Z,6.22
2022-08-26T22:41:58.640Z,6.35
2022-08-26T22:44:25.810Z,5.65
2022-08-26T22:46:56.980Z,5.85
2022-08-26T22:49:24.649Z,5.88
2022-08-26T22:51:51.653Z,5.88
2022-08-26T22:54:19.330Z,5.75
2022-08-26T22:56:46.488Z,5.63
2022-08-26T22:59:17.044Z,5.45
2022-08-26T23:01:44.788Z,5.80
2022-08-26T23:04:11.992Z,5.72
2022-08-26T23:06:41.295Z,5.85
2022-08-26T23:09:10.042Z,4.85
2022-08-26T23:11:39.828Z,5.90
2022-08-26T23:14:09.499Z,5.05
2022-08-26T23:16:39.421Z,5.78
2022-08-26T23:19:49.784Z,5.88
2022-08-26T23:22:19.501Z,6.20
2022-08-26T23:24:46.472Z,5.47
2022-08-26T23:27:13.438Z,5.03
2022-08-26T23:30:00.312Z,5.55
2022-08-26T23:32:27.428Z,5.15
2022-08-26T23:34:58.756Z,6.20
2022-08-26T23:37:31.313Z,5.30
2022-08-26T23:39:59.205Z,5.17
2022-08-26T23:42:26.198Z,5.75
2022-08-26T23:44:56.104Z,5.80
2022-08-26T23:47:23.042Z,5.30
2022-08-26T23:50:48.690Z,6.13
2022-08-26T23:53:22.131Z,5.82
2022-08-26T23:58:21.417Z,5.30
